createdAt,value
2023-05-02T00:00:00.973Z,4.68
2023-05-02T00:01:05.649Z,4.60
2023-05-02T00:02:08.687Z,4.78
2023-05-02T00:03:12.041Z,4.60
2023-05-02T00:04:14.120Z,5.10
2023-05-02T00:05:16.014Z,4.97
2023-05-02T00:06:17.879Z,4.72
2023-05-02T00:07:20.871Z,4.75
2023-05-02T00:08:23.283Z,5.05
2023-05-02T00:09:26.057Z,4.82
2023-05-02T00:10:28.329Z,4.70
2023-05-02T00:11:30.803Z,4.32
2023-05-02T00:12:34.237Z,5.03
2023-05-02T00:13:36.561Z,4.53
2023-05-02T00:14:38.745Z,4.45
2023-05-02T00:15:41.207Z,4.43
2023-05-02T00:16:43.996Z,4.95
2023-05-02T00:17:46.259Z,5.05
2023-05-02T00:18:49.530Z,4.82
2023-05-02T00:19:52.187Z,5.18
2023-05-02T00:20:55.745Z,4.78
2023-05-02T00:21:58.293Z,4.68
2023-05-02T00:23:01.180Z,5.25
2023-05-02T00:24:04.186Z,4.97
2023-05-02T00:25:07.900Z,4.88
2023-05-02T00:26:10.963Z,4.78
2023-05-02T00:27:14.603Z,4.95
2023-05-02T00:28:16.854Z,4.95
2023-05-02T00:29:20.187Z,4.97
2023-05-02T00:30:22.668Z,4.65
2023-05-02T00:31:26.752Z,4.60
2023-05-02T00:32:29.500Z,4.75
2023-05-02T00:33:33.394Z,4.75
2023-05-02T00:34:35.723Z,4.77
2023-05-02T00:35:39.748Z,4.65
2023-05-02T00:36:42.304Z,5.05
2023-05-02T00:37:45.069Z,4.72
2023-05-02T00:38:47.784Z,5.03
2023-05-02T00:39:50.805Z,4.80
2023-05-02T00:40:54.614Z,4.75
2023-05-02T00:42:00.384Z,5.25
2023-05-02T00:43:02.972Z,4.50
2023-05-02T00:44:05.773Z,5.35
2023-05-02T00:45:08.753Z,4.93
2023-05-02T00:46:13.259Z,4.60
2023-05-02T00:47:16.185Z,4.63
2023-05-02T00:48:20.893Z,5.05
2023-05-02T00:49:23.783Z,4.78
2023-05-02T00:50:29.026Z,4.63
2023-05-02T00:51:34.602Z,4.80
2023-05-02T00:52:38.756Z,4.70
2023-05-02T00:53:42.072Z,4.55
2023-05-02T00:54:45.359Z,4.80
2023-05-02T00:55:49.861Z,4.53
2023-05-02T00:56:53.497Z,4.40
2023-05-02T00:57:56.165Z,4.30
2023-05-02T00:58:59.410Z,4.47
2023-05-02T01:00:02.152Z,4.32
2023-05-02T01:01:13.918Z,4.57
2023-05-02T01:02:41.302Z,4.20
2023-05-02T01:04:05.165Z,4.10
2023-05-02T01:05:25.897Z,4.10
2023-05-02T01:06:54.789Z,4.47
2023-05-02T01:08:19.670Z,4.50
2023-05-02T01:09:48.624Z,4.38
2023-05-02T01:11:07.162Z,4.55
2023-05-02T01:12:43.837Z,4.45
2023-05-02T01:13:47.654Z,4.22
2023-05-02T01:14:57.613Z,4.30
2023-05-02T01:16:03.562Z,4.65
2023-05-02T01:17:10.798Z,4.40
2023-05-02T01:18:15.522Z,4.80
2023-05-02T01:19:30.178Z,5.03
2023-05-02T01:20:37.505Z,4.33
2023-05-02T01:21:41.118Z,4.15
2023-05-02T01:22:44.987Z,4.57
2023-05-02T01:23:53.526Z,4.00
2023-05-02T01:25:31.381Z,4.57
2023-05-02T01:26:42.469Z,4.40
2023-05-02T01:28:06.495Z,4.95
2023-05-02T01:29:10.232Z,4.35
2023-05-02T01:30:15.368Z,4.57
2023-05-02T01:31:19.110Z,4.38
2023-05-02T01:32:23.998Z,4.10
2023-05-02T01:33:29.085Z,4.45
2023-05-02T01:34:34.379Z,4.50
2023-05-02T01:35:39.250Z,4.45
2023-05-02T01:36:47.003Z,4.60
2023-05-02T01:37:53.803Z,4.50
2023-05-02T01:38:57.717Z,4.20
2023-05-02T01:40:01.485Z,4.25
2023-05-02T01:41:07.575Z,4.65
2023-05-02T01:42:12.599Z,4.60
2023-05-02T01:43:16.009Z,4.30
2023-05-02T01:44:21.396Z,4.50
2023-05-02T01:45:27.822Z,4.50
2023-05-02T01:46:40.644Z,4.43
2023-05-02T01:47:45.393Z,4.60
2023-05-02T01:48:51.491Z,4.88
2023-05-02T01:49:54.201Z,4.50
2023-05-02T01:51:00.939Z,4.85
2023-05-02T01:52:07.981Z,4.60
2023-05-02T01:53:14.247Z,4.60
2023-05-02T01:54:19.313Z,4.67
2023-05-02T01:55:22.592Z,4.88
2023-05-02T01:56:26.302Z,5.15
2023-05-02T01:57:30.146Z,4.45
2023-05-02T01:58:34.711Z,4.50
2023-05-02T01:59:41.266Z,4.30
2023-05-02T02:00:48.118Z,4.60
2023-05-02T02:01:53.362Z,4.45
2023-05-02T02:02:57.460Z,4.53
2023-05-02T02:04:01.935Z,4.30
2023-05-02T02:05:07.421Z,4.87
2023-05-02T02:06:10.949Z,4.63
2023-05-02T02:07:16.916Z,4.60
2023-05-02T02:08:19.359Z,4.55
2023-05-02T02:09:22.284Z,4.60
2023-05-02T02:10:30.868Z,4.28
2023-05-02T02:11:44.237Z,5.07
2023-05-02T02:12:54.171Z,4.40
2023-05-02T02:14:03.886Z,4.78
2023-05-02T02:15:15.202Z,4.22
2023-05-02T02:16:25.478Z,4.60
2023-05-02T02:17:37.056Z,4.20
2023-05-02T02:18:40.073Z,4.15
2023-05-02T02:19:45.137Z,4.80
2023-05-02T02:20:49.148Z,4.45
2023-05-02T02:21:54.299Z,4.20
2023-05-02T02:22:59.103Z,4.20
2023-05-02T02:24:04.520Z,4.50
2023-05-02T02:25:11.357Z,4.10
2023-05-02T02:26:14.992Z,4.28
2023-05-02T02:27:17.490Z,4.87
2023-05-02T02:28:20.486Z,4.07
2023-05-02T02:29:23.199Z,5.00
2023-05-02T02:30:25.713Z,4.10
2023-05-02T02:31:36.088Z,4.57
2023-05-02T02:32:39.070Z,4.70
2023-05-02T02:33:41.629Z,4.40
2023-05-02T02:34:45.326Z,4.57
2023-05-02T02:36:00.774Z,4.30
2023-05-02T02:37:14.622Z,4.10
2023-05-02T02:38:28.897Z,3.93
2023-05-02T02:39:52.672Z,4.07
2023-05-02T02:41:05.994Z,4.50
2023-05-02T02:42:46.180Z,4.07
2023-05-02T02:44:07.250Z,4.10
2023-05-02T02:45:40.511Z,4.30
2023-05-02T02:47:12.563Z,4.32
2023-05-02T02:48:23.735Z,3.92
2023-05-02T02:49:55.926Z,4.30
2023-05-02T02:51:14.247Z,3.92
2023-05-02T02:52:27.916Z,4.37
2023-05-02T02:54:12.390Z,4.10
2023-05-02T02:55:58.708Z,4.00
2023-05-02T02:57:16.676Z,3.72
2023-05-02T02:58:58.299Z,3.80
2023-05-02T03:00:14.327Z,4.28
2023-05-02T03:01:21.655Z,3.80
2023-05-02T03:02:29.744Z,4.07
2023-05-02T03:03:34.730Z,3.70
2023-05-02T03:04:42.325Z,3.70
2023-05-02T03:05:45.167Z,3.83
2023-05-02T03:06:48.566Z,3.60
2023-05-02T03:07:51.929Z,3.90
2023-05-02T03:08:54.321Z,3.72
2023-05-02T03:09:56.976Z,3.72
2023-05-02T03:11:02.150Z,3.53
2023-05-02T03:12:05.002Z,3.55
2023-05-02T03:13:09.016Z,4.00
2023-05-02T03:14:11.379Z,3.60
2023-05-02T03:15:14.281Z,3.20
2023-05-02T03:16:23.487Z,3.80
2023-05-02T03:17:26.424Z,3.70
2023-05-02T03:18:28.843Z,3.72
2023-05-02T03:19:31.727Z,3.65
2023-05-02T03:20:34.752Z,3.53
2023-05-02T03:21:39.270Z,3.50
2023-05-02T03:22:41.704Z,4.10
2023-05-02T03:23:46.210Z,3.88
2023-05-02T03:24:49.200Z,3.78
2023-05-02T03:25:51.861Z,3.20
2023-05-02T03:26:59.557Z,3.60
2023-05-02T03:28:04.573Z,3.20
2023-05-02T03:29:07.122Z,3.22
2023-05-02T03:30:10.400Z,3.80
2023-05-02T03:31:14.045Z,3.45
2023-05-02T03:32:16.907Z,3.97
2023-05-02T03:33:19.476Z,3.67
2023-05-02T03:34:22.620Z,3.17
2023-05-02T03:35:25.059Z,3.45
2023-05-02T03:36:28.908Z,3.13
2023-05-02T03:37:31.438Z,3.27
2023-05-02T03:38:35.340Z,3.25
2023-05-02T03:39:38.724Z,3.65
2023-05-02T03:40:42.510Z,3.40
2023-05-02T03:41:45.508Z,3.50
2023-05-02T03:42:48.588Z,3.80
2023-05-02T03:43:53.069Z,3.50
2023-05-02T03:44:55.717Z,3.55
2023-05-02T03:45:58.668Z,3.60
2023-05-02T03:47:01.065Z,2.92
2023-05-02T03:48:03.755Z,3.20
2023-05-02T03:49:06.234Z,3.40
2023-05-02T03:50:08.902Z,3.58
2023-05-02T03:51:11.818Z,3.42
2023-05-02T03:52:14.479Z,3.47
2023-05-02T03:53:17.322Z,3.47
2023-05-02T03:54:20.485Z,3.47
2023-05-02T03:55:23.436Z,3.90
2023-05-02T03:56:26.110Z,3.90
2023-05-02T03:57:31.041Z,3.03
2023-05-02T03:58:34.674Z,3.53
2023-05-02T03:59:37.725Z,3.70
2023-05-02T04:00:40.724Z,3.50
2023-05-02T04:01:44.995Z,3.50
2023-05-02T04:02:48.062Z,3.17
2023-05-02T04:03:53.599Z,3.00
2023-05-02T04:04:56.631Z,3.10
2023-05-02T04:05:59.193Z,3.17
2023-05-02T04:07:03.445Z,3.40
2023-05-02T04:08:06.058Z,3.05
2023-05-02T04:09:09.732Z,3.27
2023-05-02T04:10:16.842Z,3.55
2023-05-02T04:11:19.823Z,3.40
2023-05-02T04:12:23.847Z,3.17
2023-05-02T04:13:26.431Z,3.10
2023-05-02T04:14:30.053Z,2.92
2023-05-02T04:15:32.782Z,3.15
2023-05-02T04:16:35.309Z,2.97
2023-05-02T04:17:38.895Z,3.00
2023-05-02T04:18:42.102Z,2.85
2023-05-02T04:19:44.730Z,3.40
2023-05-02T04:20:47.693Z,3.30
2023-05-02T04:21:50.801Z,3.78
2023-05-02T04:22:53.623Z,2.97
2023-05-02T04:23:56.345Z,3.00
2023-05-02T04:24:58.921Z,3.40
2023-05-02T04:26:02.167Z,3.35
2023-05-02T04:27:04.956Z,3.75
2023-05-02T04:28:08.566Z,3.25
2023-05-02T04:29:10.975Z,3.15
2023-05-02T04:30:13.812Z,3.17
2023-05-02T04:31:16.731Z,2.92
2023-05-02T04:32:19.422Z,3.03
2023-05-02T04:33:21.390Z,2.90
2023-05-02T04:34:24.118Z,3.50
2023-05-02T04:35:27.664Z,2.90
2023-05-02T04:36:31.722Z,3.70
2023-05-02T04:37:34.187Z,2.97
2023-05-02T04:38:39.845Z,3.15
2023-05-02T04:39:42.230Z,3.00
2023-05-02T04:40:45.040Z,3.23
2023-05-02T04:41:47.559Z,3.25
2023-05-02T04:42:50.934Z,3.45
2023-05-02T04:43:53.790Z,3.88
2023-05-02T04:44:56.371Z,3.28
2023-05-02T04:45:59.217Z,3.10
2023-05-02T04:47:01.568Z,3.65
2023-05-02T04:48:05.990Z,3.33
2023-05-02T04:49:10.491Z,3.03
2023-05-02T04:50:12.889Z,3.15
2023-05-02T04:51:17.182Z,3.03
2023-05-02T04:52:19.992Z,2.90
2023-05-02T04:53:23.944Z,3.47
2023-05-02T04:54:27.188Z,3.20
2023-05-02T04:55:29.622Z,3.08
2023-05-02T04:56:32.053Z,3.35
2023-05-02T04:57:34.481Z,3.25
2023-05-02T04:58:37.201Z,3.08
2023-05-02T04:59:42.655Z,3.00
2023-05-02T05:00:45.305Z,3.00
2023-05-02T05:01:48.385Z,3.03
2023-05-02T05:02:50.945Z,3.10
2023-05-02T05:03:53.663Z,3.20
2023-05-02T05:04:56.494Z,2.90
2023-05-02T05:05:59.255Z,3.50
2023-05-02T05:07:02.022Z,3.67
2023-05-02T05:08:04.616Z,2.80
2023-05-02T05:09:07.444Z,3.03
2023-05-02T05:10:11.799Z,2.90
2023-05-02T05:11:16.055Z,3.08
2023-05-02T05:12:18.933Z,3.17
2023-05-02T05:13:21.757Z,2.80
2023-05-02T05:14:24.548Z,3.45
2023-05-02T05:15:28.122Z,2.80
2023-05-02T05:16:30.939Z,2.90
2023-05-02T05:17:33.626Z,3.05
2023-05-02T05:18:40.793Z,2.78
2023-05-02T05:19:45.860Z,2.78
2023-05-02T05:20:49.881Z,2.50
2023-05-02T05:21:52.695Z,2.85
2023-05-02T05:22:55.551Z,2.67
2023-05-02T05:23:57.949Z,3.17
2023-05-02T05:25:04.812Z,2.83
2023-05-02T05:26:11.613Z,2.72
2023-05-02T05:27:14.064Z,2.70
2023-05-02T05:28:18.993Z,2.90
2023-05-02T05:29:22.800Z,2.70
2023-05-02T05:30:25.652Z,2.83
2023-05-02T05:31:28.417Z,2.58
2023-05-02T05:32:31.384Z,2.88
2023-05-02T05:33:34.487Z,2.87
2023-05-02T05:34:41.213Z,2.83
2023-05-02T05:35:43.611Z,2.85
2023-05-02T05:36:47.445Z,2.80
2023-05-02T05:37:50.147Z,2.85
2023-05-02T05:38:52.664Z,2.75
2023-05-02T05:39:54.961Z,2.95
2023-05-02T05:40:57.944Z,2.67
2023-05-02T05:42:01.683Z,2.75
2023-05-02T05:43:05.340Z,2.80
2023-05-02T05:44:09.426Z,3.00
2023-05-02T05:45:12.716Z,2.40
2023-05-02T05:46:16.600Z,2.70
2023-05-02T05:47:22.431Z,3.00
2023-05-02T05:48:25.330Z,2.83
2023-05-02T05:49:29.615Z,2.80
2023-05-02T05:50:31.928Z,2.80
2023-05-02T05:51:35.556Z,2.78
2023-05-02T05:52:39.816Z,2.65
2023-05-02T05:53:42.670Z,2.60
2023-05-02T05:54:46.087Z,2.60
2023-05-02T05:55:48.501Z,2.40
2023-05-02T05:56:51.120Z,2.70
2023-05-02T05:57:54.348Z,2.60
2023-05-02T05:58:56.952Z,2.30
2023-05-02T05:59:59.913Z,2.40
2023-05-02T06:01:06.114Z,2.30
2023-05-02T06:02:09.940Z,2.22
2023-05-02T06:03:12.595Z,2.30
2023-05-02T06:04:15.382Z,2.58
2023-05-02T06:05:18.084Z,2.70
2023-05-02T06:06:21.652Z,2.10
2023-05-02T06:07:24.072Z,2.30
2023-05-02T06:08:26.478Z,2.88
2023-05-02T06:09:29.988Z,2.90
2023-05-02T06:10:33.061Z,1.95
2023-05-02T06:11:38.045Z,2.53
2023-05-02T06:12:40.480Z,2.65
2023-05-02T06:13:43.147Z,2.50
2023-05-02T06:14:47.076Z,2.70
2023-05-02T06:15:50.426Z,2.53
2023-05-02T06:16:53.359Z,2.47
2023-05-02T06:17:55.823Z,2.88
2023-05-02T06:18:58.280Z,2.30
2023-05-02T06:20:01.021Z,2.80
2023-05-02T06:21:08.589Z,2.40
2023-05-02T06:22:14.384Z,2.50
2023-05-02T06:23:18.036Z,2.60
2023-05-02T06:24:21.033Z,2.22
2023-05-02T06:25:23.550Z,2.47
2023-05-02T06:26:26.494Z,2.63
2023-05-02T06:27:31.606Z,2.50
2023-05-02T06:28:35.986Z,2.63
2023-05-02T06:29:39.278Z,2.63
2023-05-02T06:30:43.075Z,2.33
2023-05-02T06:31:45.634Z,2.30
2023-05-02T06:32:48.560Z,2.22
2023-05-02T06:33:51.964Z,2.45
2023-05-02T06:34:54.396Z,2.60
2023-05-02T06:35:59.200Z,2.40
2023-05-02T06:37:04.608Z,2.47
2023-05-02T06:38:07.391Z,2.40
2023-05-02T06:39:09.790Z,2.78
2023-05-02T06:40:13.882Z,2.65
2023-05-02T06:41:18.222Z,2.80
2023-05-02T06:42:22.634Z,2.47
2023-05-02T06:43:25.190Z,2.30
2023-05-02T06:44:27.452Z,2.45
2023-05-02T06:45:29.873Z,2.40
2023-05-02T06:46:43.190Z,2.47
2023-05-02T06:47:48.281Z,2.20
2023-05-02T06:49:00.375Z,2.22
2023-05-02T06:50:04.405Z,2.30
2023-05-02T06:51:07.691Z,2.40
2023-05-02T06:52:10.347Z,2.50
2023-05-02T06:53:12.812Z,2.10
2023-05-02T06:54:16.264Z,2.28
2023-05-02T06:55:18.768Z,2.20
2023-05-02T06:56:22.031Z,2.10
2023-05-02T06:57:25.567Z,2.15
2023-05-02T06:58:29.568Z,2.30
2023-05-02T06:59:32.711Z,2.38
2023-05-02T07:00:36.009Z,2.40
2023-05-02T07:01:38.452Z,2.38
2023-05-02T07:02:41.267Z,2.35
2023-05-02T07:03:44.024Z,1.88
2023-05-02T07:04:46.510Z,2.20
2023-05-02T07:05:51.526Z,2.20
2023-05-02T07:06:53.367Z,1.90
2023-05-02T07:07:55.128Z,1.80
2023-05-02T07:08:57.175Z,2.10
2023-05-02T07:09:59.147Z,1.88
2023-05-02T07:11:01.214Z,2.20
2023-05-02T07:12:06.088Z,2.22
2023-05-02T07:13:08.616Z,2.03
2023-05-02T07:14:10.453Z,1.90
2023-05-02T07:15:13.959Z,1.85
2023-05-02T07:16:15.754Z,2.05
2023-05-02T07:17:17.961Z,1.88
2023-05-02T07:18:19.955Z,2.20
2023-05-02T07:19:21.783Z,1.87
2023-05-02T07:20:23.504Z,2.05
2023-05-02T07:21:25.224Z,1.90
2023-05-02T07:22:27.007Z,1.80
2023-05-02T07:23:28.919Z,1.70
2023-05-02T07:24:30.748Z,1.80
2023-05-02T07:25:32.535Z,2.00
2023-05-02T07:26:34.586Z,2.10
2023-05-02T07:27:36.360Z,1.80
2023-05-02T07:28:38.117Z,1.65
2023-05-02T07:29:39.999Z,1.90
2023-05-02T07:30:42.357Z,2.25
2023-05-02T07:31:44.341Z,2.05
2023-05-02T07:32:46.301Z,1.85
2023-05-02T07:33:48.093Z,2.00
2023-05-02T07:34:49.874Z,2.10
2023-05-02T07:35:52.456Z,2.30
2023-05-02T07:36:54.661Z,1.83
2023-05-02T07:37:56.968Z,2.25
2023-05-02T07:38:59.100Z,2.30
2023-05-02T07:40:01.650Z,2.40
2023-05-02T07:41:03.728Z,2.25
2023-05-02T07:42:06.624Z,2.30
2023-05-02T07:43:11.031Z,2.20
2023-05-02T07:44:13.610Z,2.20
2023-05-02T07:45:15.728Z,2.40
2023-05-02T07:46:18.399Z,2.40
2023-05-02T07:47:42.596Z,2.50
2023-05-02T07:48:45.223Z,2.28
2023-05-02T07:49:52.196Z,2.55
2023-05-02T07:50:54.809Z,2.40
2023-05-02T07:51:57.457Z,2.30
2023-05-02T07:52:59.296Z,2.45
2023-05-02T07:54:02.217Z,2.58
2023-05-02T07:55:04.750Z,2.80
2023-05-02T07:56:07.614Z,2.38
2023-05-02T07:57:09.988Z,2.30
2023-05-02T07:58:12.478Z,2.50
2023-05-02T07:59:14.708Z,2.55
2023-05-02T08:00:17.653Z,2.33
2023-05-02T08:01:20.476Z,2.53
2023-05-02T08:02:23.987Z,2.33
2023-05-02T08:03:27.265Z,2.63
2023-05-02T08:04:31.302Z,2.10
2023-05-02T08:05:36.545Z,2.53
2023-05-02T08:06:38.469Z,2.30
2023-05-02T08:07:40.769Z,2.40
2023-05-02T08:08:42.811Z,2.33
2023-05-02T08:09:44.737Z,2.50
2023-05-02T08:10:46.769Z,2.42
2023-05-02T08:11:48.638Z,2.07
2023-05-02T08:12:51.306Z,2.20
2023-05-02T08:13:53.189Z,2.50
2023-05-02T08:14:54.934Z,2.30
2023-05-02T08:15:58.680Z,4.13
2023-05-02T08:17:01.553Z,2.38
2023-05-02T08:18:04.140Z,2.35
2023-05-02T08:19:06.699Z,2.10
2023-05-02T08:20:09.551Z,2.17
2023-05-02T08:21:11.545Z,2.33
2023-05-02T08:22:15.521Z,2.00
2023-05-02T08:23:17.422Z,2.03
2023-05-02T08:24:25.999Z,2.30
2023-05-02T08:25:30.431Z,2.22
2023-05-02T08:26:33.155Z,2.10
2023-05-02T08:27:35.659Z,1.75
2023-05-02T08:28:37.559Z,2.35
2023-05-02T08:29:40.028Z,2.30
2023-05-02T08:30:42.023Z,2.30
2023-05-02T08:31:44.630Z,2.30
2023-05-02T08:32:48.191Z,2.20
2023-05-02T08:33:56.000Z,2.20
2023-05-02T08:34:59.245Z,2.28
2023-05-02T08:36:01.906Z,2.33
2023-05-02T08:37:09.985Z,2.08
2023-05-02T08:38:15.511Z,1.88
2023-05-02T08:39:19.037Z,2.10
2023-05-02T08:40:34.099Z,1.90
2023-05-02T08:41:42.812Z,1.92
2023-05-02T08:42:45.411Z,1.73
2023-05-02T08:43:49.001Z,2.00
2023-05-02T08:44:51.300Z,1.75
2023-05-02T08:45:58.490Z,1.70
2023-05-02T08:47:04.873Z,1.60
2023-05-02T08:48:10.669Z,2.05
2023-05-02T08:49:16.301Z,1.80
2023-05-02T08:50:19.519Z,1.52
2023-05-02T08:51:24.349Z,1.85
2023-05-02T08:52:28.007Z,2.00
2023-05-02T08:53:34.235Z,2.30
2023-05-02T08:54:39.237Z,1.47
2023-05-02T08:55:42.769Z,2.05
2023-05-02T08:56:46.577Z,1.83
2023-05-02T08:57:48.661Z,1.88
2023-05-02T08:58:51.033Z,2.00
2023-05-02T08:59:53.566Z,1.75
2023-05-02T09:00:58.638Z,1.88
2023-05-02T09:02:09.160Z,2.00
2023-05-02T09:03:35.713Z,2.33
2023-05-02T09:04:43.399Z,2.10
2023-05-02T09:05:55.940Z,1.90
2023-05-02T09:06:58.763Z,2.30
2023-05-02T09:08:00.816Z,2.30
2023-05-02T09:09:05.005Z,2.30
2023-05-02T09:10:08.153Z,2.30
2023-05-02T09:11:11.662Z,1.95
2023-05-02T09:12:14.782Z,1.42
2023-05-02T09:13:39.432Z,2.00
2023-05-02T09:14:44.267Z,2.08
2023-05-02T09:16:00.987Z,2.40
2023-05-02T09:17:03.002Z,2.20
2023-05-02T09:18:07.143Z,2.42
2023-05-02T09:19:10.139Z,2.35
2023-05-02T09:20:15.509Z,2.55
2023-05-02T09:21:37.153Z,2.55
2023-05-02T09:22:42.185Z,2.70
2023-05-02T09:23:49.013Z,2.22
2023-05-02T09:24:55.420Z,2.30
2023-05-02T09:25:58.082Z,2.63
2023-05-02T09:27:05.218Z,2.40
2023-05-02T09:28:08.156Z,2.60
2023-05-02T09:29:09.948Z,2.72
2023-05-02T09:30:25.742Z,2.88
2023-05-02T09:32:48.080Z,2.70
2023-05-02T09:33:54.689Z,3.10
2023-05-02T09:35:06.952Z,3.17
2023-05-02T09:36:14.849Z,3.47
2023-05-02T09:37:36.348Z,3.10
2023-05-02T09:38:39.129Z,3.55
2023-05-02T09:39:43.118Z,3.27
2023-05-02T09:40:56.348Z,3.10
2023-05-02T09:42:09.288Z,3.90
2023-05-02T09:43:18.941Z,3.55
2023-05-02T09:44:23.681Z,3.97
2023-05-02T09:45:27.512Z,3.75
2023-05-02T09:46:53.405Z,3.78
2023-05-02T09:47:55.445Z,2.95
2023-05-02T09:48:59.220Z,3.63
2023-05-02T09:50:01.087Z,3.53
2023-05-02T09:51:02.878Z,3.80
2023-05-02T09:52:18.427Z,4.13
2023-05-02T09:53:20.441Z,3.35
2023-05-02T09:54:39.351Z,3.85
2023-05-02T09:55:41.430Z,4.07
2023-05-02T09:56:58.057Z,3.63
2023-05-02T09:58:01.420Z,3.85
2023-05-02T09:59:14.805Z,3.90
2023-05-02T10:00:20.014Z,3.92
2023-05-02T10:01:23.136Z,3.70
2023-05-02T10:02:26.486Z,4.07
2023-05-02T10:03:33.929Z,4.03
2023-05-02T10:04:36.722Z,3.80
2023-05-02T10:05:41.350Z,3.90
2023-05-02T10:06:47.712Z,4.07
2023-05-02T10:07:53.441Z,3.97
2023-05-02T10:08:55.843Z,4.18
2023-05-02T10:10:00.188Z,4.35
2023-05-02T10:11:07.555Z,4.20
2023-05-02T10:12:10.013Z,4.22
2023-05-02T10:13:13.575Z,4.03
2023-05-02T10:14:18.184Z,4.00
2023-05-02T10:15:23.272Z,4.00
2023-05-02T10:16:29.760Z,4.20
2023-05-02T10:17:34.352Z,4.53
2023-05-02T10:18:50.852Z,4.68
2023-05-02T10:20:06.670Z,4.10
2023-05-02T10:21:16.650Z,4.60
2023-05-02T10:22:22.681Z,4.85
2023-05-02T10:23:36.222Z,4.30
2023-05-02T10:24:42.181Z,4.80
2023-05-02T10:25:44.621Z,4.60
2023-05-02T10:26:47.744Z,4.82
2023-05-02T10:27:50.058Z,4.95
2023-05-02T10:28:52.357Z,4.70
2023-05-02T10:30:13.388Z,4.55
2023-05-02T10:31:27.805Z,4.47
2023-05-02T10:32:38.102Z,4.38
2023-05-02T10:33:40.960Z,5.03
2023-05-02T10:34:44.215Z,4.80
2023-05-02T10:35:49.052Z,4.70
2023-05-02T10:36:50.899Z,4.72
2023-05-02T10:37:54.610Z,4.43
2023-05-02T10:39:02.784Z,4.72
2023-05-02T10:40:16.033Z,5.18
2023-05-02T10:41:43.222Z,5.15
2023-05-02T10:42:47.956Z,4.43
2023-05-02T10:43:50.696Z,5.00
2023-05-02T10:44:52.591Z,4.88
2023-05-02T10:45:55.156Z,5.20
2023-05-02T10:46:58.135Z,4.90
2023-05-02T10:48:22.710Z,4.38
2023-05-02T10:49:27.218Z,4.97
2023-05-02T10:50:47.590Z,5.55
2023-05-02T10:51:49.360Z,4.93
2023-05-02T10:52:51.124Z,5.82
2023-05-02T10:53:52.907Z,5.78
2023-05-02T10:55:15.833Z,5.28
2023-05-02T10:56:28.382Z,5.07
2023-05-02T10:57:31.013Z,5.38
2023-05-02T10:58:32.902Z,5.27
2023-05-02T10:59:41.348Z,5.70
2023-05-02T11:00:43.138Z,5.30
2023-05-02T11:01:44.983Z,5.35
2023-05-02T11:02:47.557Z,5.85
2023-05-02T11:03:59.055Z,5.47
2023-05-02T11:05:04.208Z,5.30
2023-05-02T11:06:07.821Z,5.25
2023-05-02T11:07:09.790Z,4.78
2023-05-02T11:08:19.281Z,5.03
2023-05-02T11:09:22.134Z,4.93
2023-05-02T11:10:27.857Z,4.95
2023-05-02T11:11:52.463Z,5.40
2023-05-02T11:13:01.125Z,4.65
2023-05-02T11:14:03.008Z,4.07
2023-05-02T11:15:05.607Z,5.15
2023-05-02T11:16:07.483Z,4.60
2023-05-02T11:17:10.014Z,4.90
2023-05-02T11:18:13.533Z,4.57
2023-05-02T11:19:16.469Z,4.50
2023-05-02T11:20:21.353Z,5.27
2023-05-02T11:21:31.141Z,5.30
2023-05-02T11:22:34.073Z,4.53
2023-05-02T11:23:37.022Z,4.32
2023-05-02T11:24:44.448Z,4.32
2023-05-02T11:25:51.520Z,4.35
2023-05-02T11:26:55.221Z,4.93
2023-05-02T11:27:57.217Z,4.50
2023-05-02T11:28:58.983Z,4.70
2023-05-02T11:30:01.928Z,5.10
2023-05-02T11:31:05.410Z,4.97
2023-05-02T11:32:08.661Z,5.10
2023-05-02T11:33:16.080Z,4.97
2023-05-02T11:34:19.460Z,4.95
2023-05-02T11:35:23.527Z,5.25
2023-05-02T11:36:29.881Z,4.90
2023-05-02T11:37:33.184Z,4.47
2023-05-02T11:38:38.925Z,4.75
2023-05-02T11:39:41.740Z,4.53
2023-05-02T11:41:04.409Z,5.18
2023-05-02T11:42:06.490Z,4.83
2023-05-02T11:43:16.676Z,4.80
2023-05-02T11:44:18.544Z,4.97
2023-05-02T11:45:21.124Z,4.93
2023-05-02T11:46:23.521Z,4.88
2023-05-02T11:47:27.549Z,4.90
2023-05-02T11:48:30.455Z,4.75
2023-05-02T11:49:32.349Z,5.00
2023-05-02T11:50:46.660Z,5.22
2023-05-02T11:51:52.051Z,5.03
2023-05-02T11:52:53.982Z,4.87
2023-05-02T11:53:56.761Z,3.95
2023-05-02T11:54:58.593Z,4.50
2023-05-02T11:56:03.335Z,3.88
2023-05-02T11:57:05.264Z,4.38
2023-05-02T11:58:13.386Z,4.60
2023-05-02T11:59:15.119Z,4.13
2023-05-02T12:00:17.346Z,4.55
2023-05-02T12:01:20.096Z,3.88
2023-05-02T12:02:40.429Z,4.05
2023-05-02T12:03:42.622Z,4.30
2023-05-02T12:04:44.953Z,4.15
2023-05-02T12:05:46.840Z,4.30
2023-05-02T12:06:56.671Z,4.35
2023-05-02T12:07:58.517Z,4.10
2023-05-02T12:09:08.658Z,4.50
2023-05-02T12:10:11.631Z,4.10
2023-05-02T12:11:15.904Z,4.30
2023-05-02T12:12:21.929Z,4.22
2023-05-02T12:13:25.636Z,4.20
2023-05-02T12:14:33.521Z,4.43
2023-05-02T12:15:36.908Z,3.75
2023-05-02T12:16:38.833Z,4.43
2023-05-02T12:17:47.465Z,4.10
2023-05-02T12:18:49.692Z,3.92
2023-05-02T12:19:51.771Z,3.95
2023-05-02T12:20:55.514Z,4.10
2023-05-02T12:21:57.938Z,3.72
2023-05-02T12:23:00.075Z,3.50
2023-05-02T12:24:02.645Z,3.28
2023-05-02T12:25:08.169Z,3.63
2023-05-02T12:26:22.007Z,3.80
2023-05-02T12:27:24.321Z,3.50
2023-05-02T12:28:26.499Z,3.63
2023-05-02T12:29:41.845Z,3.67
2023-05-02T12:30:44.574Z,4.28
2023-05-02T12:31:52.625Z,3.95
2023-05-02T12:32:59.635Z,3.80
2023-05-02T12:34:01.665Z,4.32
2023-05-02T12:35:04.392Z,4.10
2023-05-02T12:36:08.203Z,4.10
2023-05-02T12:37:10.119Z,4.22
2023-05-02T12:38:22.968Z,3.80
2023-05-02T12:39:42.718Z,4.30
2023-05-02T12:40:57.572Z,4.13
2023-05-02T12:41:59.406Z,4.07
2023-05-02T12:43:07.668Z,4.10
2023-05-02T12:44:09.460Z,4.20
2023-05-02T12:45:20.122Z,4.03
2023-05-02T12:46:22.018Z,3.55
2023-05-02T12:47:24.727Z,4.13
2023-05-02T12:48:28.125Z,4.30
2023-05-02T12:49:30.173Z,4.10
2023-05-02T12:50:39.041Z,4.30
2023-05-02T12:51:41.223Z,4.13
2023-05-02T12:52:51.383Z,3.83
2023-05-02T12:53:53.097Z,3.70
2023-05-02T12:55:14.772Z,3.72
2023-05-02T12:56:17.372Z,3.70
2023-05-02T12:57:26.360Z,4.05
2023-05-02T12:58:28.654Z,4.00
2023-05-02T12:59:32.269Z,4.20
2023-05-02T13:00:39.386Z,3.58
2023-05-02T13:01:41.472Z,3.80
2023-05-02T13:02:43.371Z,3.95
2023-05-02T13:03:45.364Z,3.53
2023-05-02T13:04:47.635Z,3.22
2023-05-02T13:05:54.580Z,3.60
2023-05-02T13:06:56.447Z,3.78
2023-05-02T13:07:59.263Z,4.00
2023-05-02T13:09:01.818Z,3.67
2023-05-02T13:10:04.030Z,3.50
2023-05-02T13:11:06.171Z,4.05
2023-05-02T13:12:07.983Z,3.72
2023-05-02T13:13:09.738Z,3.67
2023-05-02T13:14:11.595Z,3.90
2023-05-02T13:15:13.810Z,4.00
2023-05-02T13:16:15.794Z,3.63
2023-05-02T13:17:17.835Z,3.58
2023-05-02T13:18:19.711Z,3.83
2023-05-02T13:19:24.366Z,3.93
2023-05-02T13:20:26.217Z,4.15
2023-05-02T13:21:27.999Z,4.20
2023-05-02T13:22:30.045Z,4.10
2023-05-02T13:23:31.824Z,4.45
2023-05-02T13:24:33.548Z,4.63
2023-05-02T13:25:35.881Z,4.07
2023-05-02T13:26:37.685Z,4.18
2023-05-02T13:27:41.133Z,4.30
2023-05-02T13:28:42.984Z,4.72
2023-05-02T13:29:45.700Z,5.00
2023-05-02T13:30:47.531Z,4.32
2023-05-02T13:31:49.376Z,4.70
2023-05-02T13:32:51.423Z,4.47
2023-05-02T13:33:53.470Z,4.60
2023-05-02T13:34:55.715Z,4.38
2023-05-02T13:35:57.477Z,4.60
2023-05-02T13:36:59.192Z,4.50
2023-05-02T13:38:01.385Z,4.18
2023-05-02T13:39:04.420Z,4.60
2023-05-02T13:40:07.180Z,5.37
2023-05-02T13:41:09.102Z,5.10
2023-05-02T13:42:10.863Z,4.72
2023-05-02T13:43:12.692Z,4.90
2023-05-02T13:44:14.718Z,4.63
2023-05-02T13:45:17.312Z,5.07
2023-05-02T13:46:19.202Z,5.40
2023-05-02T13:47:21.541Z,5.78
2023-05-02T13:48:23.364Z,5.43
2023-05-02T13:49:25.556Z,5.03
2023-05-02T13:50:27.408Z,5.40
2023-05-02T13:51:31.344Z,5.78
2023-05-02T13:52:33.081Z,5.57
2023-05-02T13:53:34.799Z,5.53
2023-05-02T13:54:36.574Z,5.63
2023-05-02T13:55:38.384Z,5.43
2023-05-02T13:56:40.279Z,4.82
2023-05-02T13:57:42.122Z,5.88
2023-05-02T13:58:43.964Z,5.88
2023-05-02T13:59:45.905Z,5.65
2023-05-02T14:00:47.998Z,5.63
2023-05-02T14:01:49.903Z,5.50
2023-05-02T14:02:52.024Z,5.82
2023-05-02T14:03:54.621Z,5.95
2023-05-02T14:04:56.558Z,6.03
2023-05-02T14:05:58.365Z,5.60
2023-05-02T14:07:00.421Z,5.70
2023-05-02T14:08:02.188Z,5.68
2023-05-02T14:09:04.294Z,5.47
2023-05-02T14:10:06.835Z,5.47
2023-05-02T14:11:08.655Z,5.93
2023-05-02T14:12:11.678Z,5.47
2023-05-02T14:13:13.694Z,5.75
2023-05-02T14:14:15.751Z,5.82
2023-05-02T14:15:17.604Z,5.63
2023-05-02T14:16:19.791Z,5.97
2023-05-02T14:17:21.653Z,5.78
2023-05-02T14:18:23.570Z,5.85
2023-05-02T14:19:25.428Z,5.40
2023-05-02T14:20:27.306Z,4.90
2023-05-02T14:21:29.055Z,5.00
2023-05-02T14:22:30.816Z,4.68
2023-05-02T14:23:32.699Z,4.80
2023-05-02T14:24:34.496Z,4.63
2023-05-02T14:25:37.109Z,4.68
2023-05-02T14:26:38.899Z,4.32
2023-05-02T14:27:41.137Z,4.40